Time;durP1;ratioP1;P1;durP2;ratioP2;P2;SDS_P1;SDS_P2;PMS_P1;PMS_P2;Temp;Humidity;BMP_temperature;BMP_pressure;BME280_temperature;BME280_humidity;BME280_pressure;Samples;Min_cycle;Max_cycle;Signal;HPM_P1;HPM_P2
2023/06/24 00:00:31;;;;;;;0.40;0.40;;;;;;;16.85;61.28;97727.47;29395;308;63009;-51
2023/06/24 00:01:04;;;;;;;0.60;0.60;;;;;;;16.85;60.94;97716.50;29395;331;63004;-52
2023/06/24 00:01:36;;;;;;;0.45;0.45;;;;;;;16.87;61.23;97717.00;29395;219;63009;-51
2023/06/24 00:02:08;;;;;;;0.40;0.40;;;;;;;16.86;60.97;97716.19;29395;226;63004;-51
2023/06/24 00:02:42;;;;;;;0.40;0.40;;;;;;;16.86;60.95;97718.94;29395;227;63009;-60
2023/06/24 00:03:17;;;;;;;0.50;0.50;;;;;;;16.85;61.16;97719.25;29395;232;63004;-52
2023/06/24 00:03:52;;;;;;;0.40;0.40;;;;;;;16.83;61.22;97722.31;29394;300;64014;-60
2023/06/24 00:04:24;;;;;;;0.40;0.40;;;;;;;16.84;60.86;97714.87;29395;198;63005;-61
2023/06/24 00:05:00;;;;;;;0.40;0.40;;;;;;;16.82;60.99;97726.16;29395;226;63009;-59
2023/06/24 00:05:35;;;;;;;0.40;0.40;;;;;;;16.82;61.04;97722.59;29395;219;63005;-59
2023/06/24 00:06:08;;;;;;;0.40;0.40;;;;;;;16.82;60.94;97722.59;29395;232;63009;-60
2023/06/24 00:06:40;;;;;;;0.40;0.40;;;;;;;16.82;61.01;97722.59;29395;202;63005;-60
2023/06/24 00:07:11;;;;;;;0.50;0.50;;;;;;;16.81;61.18;97721.81;29395;350;63009;-59
2023/06/24 00:07:45;;;;;;;0.40;0.40;;;;;;;16.81;60.94;97727.28;29395;235;63011;-59
2023/06/24 00:08:21;;;;;;;0.40;0.40;;;;;;;16.81;61.17;97729.22;29394;234;64031;-51
2023/06/24 00:09:00;;;;;;;0.47;0.47;;;;;;;16.81;60.89;97731.97;29395;225;63004;-60
2023/06/24 00:09:31;;;;;;;0.50;0.50;;;;;;;16.82;61.20;97730.84;29395;232;63009;-60
2023/06/24 00:10:06;;;;;;;0.50;0.50;;;;;;;16.82;60.92;97733.56;29395;204;63004;-59
2023/06/24 00:10:39;;;;;;;0.50;0.50;;;;;;;16.81;60.95;97731.97;29395;197;63008;-61
2023/06/24 00:11:10;;;;;;;0.40;0.40;;;;;;;16.79;61.13;97726.78;29395;222;63005;-59
2023/06/24 00:11:42;;;;;;;0.40;0.40;;;;;;;16.77;61.17;97730.97;29394;211;64014;-59
2023/06/24 00:12:18;;;;;;;0.40;0.40;;;;;;;16.77;61.42;97729.03;29395;278;63005;-60
2023/06/24 00:12:53;;;;;;;0.40;0.40;;;;;;;16.75;61.75;97734.81;29395;203;63009;-59
2023/06/24 00:13:24;;;;;;;0.45;0.45;;;;;;;16.74;61.42;97732.38;29395;204;63005;-59
2023/06/24 00:13:56;;;;;;;0.50;0.50;;;;;;;16.73;61.89;97728.84;29395;234;63009;-59
2023/06/24 00:14:28;;;;;;;0.40;0.40;;;;;;;16.73;61.87;97731.56;29395;227;63005;-60
2023/06/24 00:15:00;;;;;;;0.40;0.40;;;;;;;16.72;62.09;97735.44;29395;232;63009;-60
2023/06/24 00:15:31;;;;;;;0.40;0.40;;;;;;;16.73;62.03;97730.78;29395;216;63004;-60
2023/06/24 00:16:03;;;;;;;0.50;0.50;;;;;;;16.71;61.98;97733.00;29395;227;63009;-51
2023/06/24 00:16:36;;;;;;;0.43;0.43;;;;;;;16.70;62.44;97734.94;29395;214;63004;-60
2023/06/24 00:17:11;;;;;;;0.40;0.40;;;;;;;16.70;62.34;97728.66;29394;252;64013;-51
2023/06/24 00:17:42;;;;;;;0.50;0.50;;;;;;;16.67;62.10;97730.09;29395;284;63009;-59
2023/06/24 00:18:13;;;;;;;0.40;0.40;;;;;;;16.67;62.29;97721.84;29395;204;63008;-52
2023/06/24 00:18:44;;;;;;;0.40;0.40;;;;;;;16.65;62.26;97735.06;29395;249;63005;-59
2023/06/24 00:19:17;;;;;;;0.40;0.40;;;;;;;16.66;62.45;97731.19;29395;221;63009;-59
2023/06/24 00:19:48;;;;;;;0.40;0.40;;;;;;;16.65;62.08;97729.59;29395;219;63005;-59
2023/06/24 00:20:20;;;;;;;0.50;0.50;;;;;;;16.63;62.10;97734.53;29395;221;63009;-50
2023/06/24 00:20:51;;;;;;;0.40;0.40;;;;;;;16.63;62.02;97726.31;29395;239;63005;-57
2023/06/24 00:21:22;;;;;;;0.45;0.45;;;;;;;16.65;62.39;97728.78;29395;236;63009;-60
2023/06/24 00:21:56;;;;;;;0.40;0.40;;;;;;;16.63;62.37;97726.31;29395;199;63005;-60
2023/06/24 00:22:28;;;;;;;0.40;0.40;;;;;;;16.64;62.24;97724.41;29394;280;64013;-58
2023/06/24 00:23:00;;;;;;;0.40;0.40;;;;;;;16.64;61.93;97730.69;29395;220;63004;-59
2023/06/24 00:23:35;;;;;;;0.40;0.40;;;;;;;16.65;61.99;97726.84;29395;231;63009;-59
2023/06/24 00:24:06;;;;;;;0.40;0.40;;;;;;;16.67;62.07;97727.34;29395;228;63004;-60
2023/06/24 00:24:39;;;;;;;0.40;0.40;;;;;;;16.65;62.08;97724.09;29395;216;63009;-61
2023/06/24 00:25:10;;;;;;;0.40;0.40;;;;;;;16.64;62.01;97727.16;29395;272;63004;-60
2023/06/24 00:25:42;;;;;;;0.40;0.40;;;;;;;16.60;62.35;97732.44;29394;239;64013;-61
2023/06/24 00:26:13;;;;;;;0.40;0.40;;;;;;;16.57;62.85;97733.06;29395;197;63005;-60
2023/06/24 00:26:49;;;;;;;0.40;0.40;;;;;;;16.54;63.75;97738.34;29395;272;63009;-59
2023/06/24 00:27:20;;;;;;;0.40;0.40;;;;;;;16.50;63.56;97738.16;29395;214;63012;-60
2023/06/24 00:27:51;;;;;;;0.40;0.40;;;;;;;16.50;63.66;97742.81;29395;216;63009;-61
2023/06/24 00:28:23;;;;;;;0.40;0.40;;;;;;;16.48;64.57;97743.13;29395;234;63005;-60
2023/06/24 00:28:54;;;;;;;0.40;0.40;;;;;;;16.46;64.74;97744.56;29395;197;63009;-60
2023/06/24 00:29:25;;;;;;;0.40;0.40;;;;;;;16.43;64.49;97738.59;29395;343;63005;-60
2023/06/24 00:29:57;;;;;;;0.45;0.45;;;;;;;16.43;64.14;97737.78;29395;211;63009;-59
2023/06/24 00:30:31;;;;;;;0.40;0.40;;;;;;;16.45;64.21;97741.00;29394;221;64009;-61
2023/06/24 00:31:03;;;;;;;0.50;0.50;;;;;;;16.44;64.23;97739.38;29395;202;63009;-60
2023/06/24 00:31:35;;;;;;;0.40;0.40;;;;;;;16.44;64.06;97736.66;29395;300;63004;-50
2023/06/24 00:32:07;;;;;;;0.40;0.40;;;;;;;16.45;64.10;97738.28;29395;197;63009;-60
2023/06/24 00:32:39;;;;;;;0.40;0.40;;;;;;;16.46;63.69;97734.41;29395;282;63004;-50
2023/06/24 00:33:13;;;;;;;0.40;0.40;;;;;;;16.45;63.60;97738.28;29395;196;63008;-60
2023/06/24 00:33:45;;;;;;;0.40;0.40;;;;;;;16.42;63.50;97736.97;29394;209;64008;-60
2023/06/24 00:34:20;;;;;;;0.40;0.40;;;;;;;16.43;63.59;97732.28;29395;221;63009;-59
2023/06/24 00:34:51;;;;;;;0.47;0.47;;;;;;;16.42;63.57;97730.69;29395;197;63005;-51
2023/06/24 00:35:22;;;;;;;0.50;0.50;;;;;;;16.41;63.58;97729.06;29395;203;63009;-59
2023/06/24 00:35:56;;;;;;;0.40;0.40;;;;;;;16.40;63.63;97732.91;29394;215;64009;-52
2023/06/24 00:36:27;;;;;;;0.50;0.50;;;;;;;16.39;63.69;97734.03;29395;260;63009;-58
2023/06/24 00:36:59;;;;;;;0.40;0.40;;;;;;;16.38;63.67;97729.66;29395;306;63010;-59
2023/06/24 00:37:31;;;;;;;0.50;0.50;;;;;;;16.37;63.87;97731.59;29395;282;63009;-58
2023/06/24 00:38:04;;;;;;;0.50;0.50;;;;;;;16.37;63.88;97728.84;29395;373;63004;-59
2023/06/24 00:38:35;;;;;;;0.40;0.40;;;;;;;16.36;63.95;97721.75;29394;202;64013;-60
2023/06/24 00:39:07;;;;;;;0.50;0.50;;;;;;;16.35;63.68;97725.62;29395;212;63004;-58
2023/06/24 00:39:41;;;;;;;0.50;0.50;;;;;;;16.36;63.77;97720.94;29395;357;63008;-59
2023/06/24 00:40:15;;;;;;;0.50;0.50;;;;;;;16.36;64.01;97726.44;29395;236;63000;-50
2023/06/24 00:40:47;;;;;;;0.47;0.47;;;;;;;16.36;63.70;97726.44;29395;220;63008;-51
2023/06/24 00:41:19;;;;;;;0.50;0.50;;;;;;;16.34;63.72;97720.44;29395;238;63005;-58
2023/06/24 00:41:51;;;;;;;0.50;0.50;;;;;;;16.34;63.70;97724.00;29395;299;63009;-60
2023/06/24 00:42:22;;;;;;;0.50;0.50;;;;;;;16.34;63.67;97728.66;29394;229;64009;-60
2023/06/24 00:42:54;;;;;;;0.40;0.40;;;;;;;16.35;63.73;97730.28;29395;219;63014;-59
2023/06/24 00:43:25;;;;;;;0.40;0.40;;;;;;;16.34;63.81;97723.19;29394;227;64005;-60
2023/06/24 00:43:58;;;;;;;0.50;0.50;;;;;;;16.35;63.93;97728.34;29394;220;64013;-59
2023/06/24 00:44:32;;;;;;;0.40;0.40;;;;;;;16.36;63.84;97723.69;29395;299;63005;-59
2023/06/24 00:45:04;;;;;;;0.40;0.40;;;;;;;16.38;63.54;97724.19;29395;237;63016;-60
2023/06/24 00:45:36;;;;;;;0.40;0.40;;;;;;;16.39;63.36;97717.59;29395;216;63004;-58
2023/06/24 00:46:08;;;;;;;0.40;0.40;;;;;;;16.41;63.27;97720.84;29395;257;63009;-59
2023/06/24 00:46:41;;;;;;;0.40;0.40;;;;;;;16.42;63.35;97719.72;29395;222;63004;-59
2023/06/24 00:47:12;;;;;;;0.50;0.50;;;;;;;16.43;63.54;97721.34;29394;207;64013;-51
2023/06/24 00:47:46;;;;;;;0.50;0.50;;;;;;;16.44;63.27;97720.22;29395;202;63004;-59
2023/06/24 00:48:17;;;;;;;0.50;0.50;;;;;;;16.45;63.42;97713.63;29395;199;63009;-61
2023/06/24 00:48:53;;;;;;;0.50;0.50;;;;;;;16.48;63.17;97723.97;29395;216;63005;-52
2023/06/24 00:49:26;;;;;;;0.50;0.50;;;;;;;16.48;63.38;97721.22;29394;231;64009;-52
2023/06/24 00:49:58;;;;;;;0.43;0.43;;;;;;;16.49;63.20;97724.78;29395;297;63005;-61
2023/06/24 00:50:30;;;;;;;0.50;0.50;;;;;;;16.51;63.41;97719.78;29395;231;63009;-61
2023/06/24 00:51:02;;;;;;;0.40;0.40;;;;;;;16.52;63.07;97719.47;29395;212;63005;-61
2023/06/24 00:51:35;;;;;;;0.40;0.40;;;;;;;16.54;62.96;97717.25;29395;216;63009;-62
2023/06/24 00:52:10;;;;;;;0.40;0.40;;;;;;;16.53;63.00;97715.63;29394;385;64009;-62
2023/06/24 00:52:43;;;;;;;0.40;0.40;;;;;;;16.55;63.07;97718.06;29395;220;63009;-60
2023/06/24 00:53:17;;;;;;;0.45;0.45;;;;;;;16.56;62.94;97717.75;29395;197;63004;-61
2023/06/24 00:53:51;;;;;;;0.50;0.50;;;;;;;16.56;62.83;97720.47;29395;233;63009;-62
2023/06/24 00:54:30;;;;;;;0.47;0.47;;;;;;;16.57;63.12;97711.12;29394;303;64009;-62
2023/06/24 00:55:02;;;;;;;0.45;0.45;;;;;;;16.58;63.30;97717.44;29395;205;63018;-60
2023/06/24 00:55:34;;;;;;;0.40;0.40;;;;;;;16.58;62.91;97717.44;29395;210;63005;-50
2023/06/24 00:56:06;;;;;;;0.43;0.43;;;;;;;16.58;63.02;97720.16;29395;202;63009;-59
2023/06/24 00:56:43;;;;;;;0.40;0.40;;;;;;;16.58;62.91;97717.44;29395;237;63005;-58
2023/06/24 00:57:17;;;;;;;0.40;0.40;;;;;;;16.56;62.95;97719.66;29395;241;63009;-60
2023/06/24 00:57:51;;;;;;;0.47;0.47;;;;;;;16.53;63.04;97715.63;29395;199;63000;-60
2023/06/24 00:58:23;;;;;;;0.40;0.40;;;;;;;16.53;63.42;97721.09;29395;323;63009;-61
2023/06/24 00:58:55;;;;;;;0.47;0.47;;;;;;;16.52;63.14;97726.88;29395;198;63005;-52
2023/06/24 00:59:31;;;;;;;0.40;0.40;;;;;;;16.50;63.45;97727.19;29394;262;64013;-61
2023/06/24 01:00:09;;;;;;;0.40;0.40;;;;;;;16.48;63.27;97721.22;29395;211;63004;-61
2023/06/24 01:00:41;;;;;;;0.50;0.50;;;;;;;16.48;63.80;97729.44;29395;221;63009;-52
2023/06/24 01:01:12;;;;;;;0.40;0.40;;;;;;;16.47;63.46;97729.75;29395;204;63004;-62
2023/06/24 01:01:46;;;;;;;0.50;0.50;;;;;;;16.47;63.75;97735.22;29395;212;63009;-62
2023/06/24 01:02:22;;;;;;;0.40;0.40;;;;;;;16.45;63.40;97735.53;29395;202;63008;-63
2023/06/24 01:02:54;;;;;;;0.40;0.40;;;;;;;16.40;63.75;97733.72;29395;234;63008;-61
2023/06/24 01:03:26;;;;;;;0.40;0.40;;;;;;;16.38;63.50;97726.94;29395;223;63005;-52
2023/06/24 01:03:59;;;;;;;0.43;0.43;;;;;;;16.36;63.76;97734.66;29395;229;63009;-60
2023/06/24 01:04:33;;;;;;;0.50;0.50;;;;;;;16.33;64.01;97727.03;29394;207;64009;-61
2023/06/24 01:05:06;;;;;;;0.40;0.40;;;;;;;16.29;65.54;97737.00;29394;255;64013;-60
2023/06/24 01:05:38;;;;;;;0.50;0.50;;;;;;;16.25;64.48;97725.06;29395;222;63005;-60
2023/06/24 01:06:10;;;;;;;0.50;0.50;;;;;;;16.23;65.74;97728.13;29395;210;63009;-60
2023/06/24 01:06:43;;;;;;;0.43;0.43;;;;;;;16.19;66.78;97731.78;29395;196;63014;-62
2023/06/24 01:07:16;;;;;;;0.40;0.40;;;;;;;16.14;66.95;97729.97;29395;222;63009;-60
2023/06/24 01:07:54;;;;;;;0.50;0.50;;;;;;;16.11;66.92;97732.50;29395;231;63009;-63
2023/06/24 01:08:26;;;;;;;0.50;0.50;;;;;;;16.08;67.38;97732.00;29395;210;63009;-52
2023/06/24 01:08:59;;;;;;;0.40;0.40;;;;;;;16.06;67.09;97733.41;29394;214;64009;-61
2023/06/24 01:09:31;;;;;;;0.40;0.40;;;;;;;16.04;67.01;97724.69;29395;198;63009;-60
2023/06/24 01:10:07;;;;;;;0.40;0.40;;;;;;;16.02;67.25;97726.94;29394;374;64008;-61
2023/06/24 01:10:39;;;;;;;0.50;0.50;;;;;;;16.01;66.55;97726.12;29395;209;63008;-59
2023/06/24 01:11:11;;;;;;;0.40;0.40;;;;;;;16.01;66.66;97737.06;29395;203;63005;-59
2023/06/24 01:11:42;;;;;;;0.50;0.50;;;;;;;16.00;66.37;97732.72;29395;233;63009;-59
2023/06/24 01:12:16;;;;;;;0.50;0.50;;;;;;;16.01;66.48;97731.59;29395;187;63005;-58
2023/06/24 01:12:49;;;;;;;0.50;0.50;;;;;;;16.01;67.02;97734.34;29394;227;64013;-59
2023/06/24 01:13:23;;;;;;;0.50;0.50;;;;;;;16.00;66.82;97731.91;29395;350;63005;-60
2023/06/24 01:13:55;;;;;;;0.45;0.45;;;;;;;15.98;66.75;97732.22;29395;210;63009;-60
2023/06/24 01:14:28;;;;;;;0.50;0.50;;;;;;;15.96;67.23;97737.19;29395;294;63005;-61
2023/06/24 01:15:00;;;;;;;0.50;0.50;;;;;;;15.92;68.78;97729.91;29395;198;63009;-61
2023/06/24 01:15:31;;;;;;;0.50;0.50;;;;;;;15.87;68.99;97725.34;29395;227;63004;-59
2023/06/24 01:16:51;;;;;;;0.50;0.50;;;;;;;15.78;68.54;97727.19;29395;279;63009;-61
2023/06/24 01:17:50;;;;;;;0.50;0.50;;;;;;;15.70;68.76;97725.97;29394;202;64008;-60
2023/06/24 01:18:32;;;;;;;0.50;0.50;;;;;;;15.67;69.28;97720.31;29395;204;63009;-51
2023/06/24 01:19:38;;;;;;;0.40;0.40;;;;;;;15.65;69.18;97728.00;29395;213;63009;-60
2023/06/24 01:20:33;;;;;;;0.50;0.50;;;;;;;15.65;68.92;97728.00;29395;309;63009;-61
2023/06/24 01:21:37;;;;;;;0.50;0.50;;;;;;;15.66;68.68;97729.63;29395;213;63005;-51
2023/06/24 01:22:47;;;;;;;0.50;0.50;;;;;;;15.67;68.87;97723.84;29394;326;64013;-61
2023/06/24 01:24:04;;;;;;;0.50;0.50;;;;;;;15.70;68.69;97716.97;29395;266;63004;-59
2023/06/24 01:25:15;;;;;;;0.50;0.50;;;;;;;15.71;68.28;97722.13;29395;207;63009;-60
2023/06/24 01:26:18;;;;;;;0.50;0.50;;;;;;;15.69;68.42;97718.88;29439;275;63005;-59
2023/06/24 01:27:25;;;;;;;0.40;0.40;;;;;;;15.71;68.57;97722.13;29417;268;63009;-60
2023/06/24 01:28:37;;;;;;;0.50;0.50;;;;;;;15.72;68.17;97720.19;29394;272;64009;-60
2023/06/24 01:29:50;;;;;;;0.50;0.50;;;;;;;15.71;68.58;97715.84;29417;196;63009;-60
2023/06/24 01:31:02;;;;;;;0.43;0.43;;;;;;;15.71;68.49;97721.31;29371;202;64009;-59
2023/06/24 01:31:53;;;;;;;0.50;0.50;;;;;;;15.73;68.60;97724.56;29395;206;63009;-60
2023/06/24 01:32:35;;;;;;;0.50;0.50;;;;;;;15.74;68.26;97726.19;29417;198;63004;-61
2023/06/24 01:33:12;;;;;;;0.40;0.40;;;;;;;15.76;68.05;97723.94;29395;225;63008;-60
2023/06/24 01:34:08;;;;;;;0.50;0.50;;;;;;;15.75;67.98;97717.66;29394;217;64009;-61
2023/06/24 01:34:57;;;;;;;0.50;0.50;;;;;;;15.75;67.86;97717.66;29395;255;63009;-59
2023/06/24 01:35:34;;;;;;;0.50;0.50;;;;;;;15.75;67.89;97717.66;29394;211;64009;-60
2023/06/24 01:36:11;;;;;;;0.40;0.40;;;;;;;15.75;67.99;97722.31;29395;219;63009;-59
2023/06/24 01:36:49;;;;;;;0.60;0.60;;;;;;;15.75;68.16;97720.41;29395;198;63005;-61
2023/06/24 01:37:32;;;;;;;0.50;0.50;;;;;;;15.74;67.65;97718.78;29395;211;63009;-59
2023/06/24 01:38:10;;;;;;;0.50;0.50;;;;;;;15.75;68.17;97716.84;29395;218;63004;-61
2023/06/24 01:39:00;;;;;;;0.50;0.50;;;;;;;15.75;68.05;97725.06;29394;222;64013;-62
2023/06/24 01:40:09;;;;;;;0.73;0.73;;;;;;;15.75;68.20;97720.41;29395;304;63004;-59
2023/06/24 01:40:45;;;;;;;0.40;0.40;;;;;;;15.74;68.09;97715.22;29395;249;63008;-61
2023/06/24 01:41:21;;;;;;;0.40;0.40;;;;;;;15.72;68.41;97712.00;29395;229;63005;-60
2023/06/24 01:42:00;;;;;;;0.40;0.40;;;;;;;15.69;68.00;97716.16;29395;208;63009;-51
2023/06/24 01:42:34;;;;;;;0.40;0.40;;;;;;;15.67;68.41;97714.81;29395;251;63017;-60
2023/06/24 01:43:08;;;;;;;0.50;0.50;;;;;;;15.67;68.55;97720.31;29394;235;64013;-60
2023/06/24 01:43:42;;;;;;;0.40;0.40;;;;;;;15.66;68.74;97724.16;29395;205;63005;-60
2023/06/24 01:44:16;;;;;;;0.50;0.50;;;;;;;15.65;68.48;97717.06;29395;226;63009;-61
2023/06/24 01:44:50;;;;;;;0.40;0.40;;;;;;;15.64;68.92;97718.16;29395;333;63004;-60
2023/06/24 01:45:28;;;;;;;0.50;0.50;;;;;;;15.65;68.73;97717.06;29395;209;63009;-59
2023/06/24 01:46:00;;;;;;;0.45;0.45;;;;;;;15.65;68.87;97722.53;29395;213;63004;-58
2023/06/24 01:46:31;;;;;;;0.50;0.50;;;;;;;15.66;68.97;97713.22;29395;215;63009;-60
2023/06/24 01:47:06;;;;;;;0.40;0.40;;;;;;;15.66;68.78;97714.03;29395;220;63004;-51
2023/06/24 01:47:40;;;;;;;0.40;0.40;;;;;;;15.66;68.86;97713.22;29395;235;63018;-60
2023/06/24 01:48:22;;;;;;;0.50;0.50;;;;;;;15.67;68.69;97720.31;29394;220;64009;-61
2023/06/24 01:48:59;;;;;;;0.40;0.40;;;;;;;15.67;68.53;97712.91;29395;212;63009;-61
2023/06/24 01:49:33;;;;;;;0.40;0.40;;;;;;;15.66;68.98;97718.69;29395;234;63005;-61
2023/06/24 01:50:09;;;;;;;0.50;0.50;;;;;;;15.66;68.95;97710.47;29395;203;63009;-63
2023/06/24 01:50:48;;;;;;;0.40;0.40;;;;;;;15.67;68.92;97704.69;29395;206;63005;-59
2023/06/24 01:51:25;;;;;;;0.50;0.50;;;;;;;15.67;68.68;97712.09;29395;207;63009;-61
2023/06/24 01:52:00;;;;;;;0.47;0.47;;;;;;;15.67;68.94;97714.81;29395;375;63004;-59
2023/06/24 01:52:34;;;;;;;0.40;0.40;;;;;;;15.64;68.90;97720.91;29395;325;63009;-60
2023/06/24 01:53:08;;;;;;;0.50;0.50;;;;;;;15.64;69.04;97715.44;29395;317;63004;-59
2023/06/24 01:53:48;;;;;;;0.40;0.40;;;;;;;15.63;69.08;97711.88;29394;316;64013;-60
2023/06/24 01:54:22;;;;;;;0.50;0.50;;;;;;;15.63;69.16;97713.81;29417;213;63008;-51
2023/06/24 01:54:56;;;;;;;0.40;0.40;;;;;;;15.64;69.08;97715.44;29394;236;64013;-59
2023/06/24 01:55:29;;;;;;;0.40;0.40;;;;;;;15.62;68.95;97707.53;29395;199;63005;-61
2023/06/24 01:56:03;;;;;;;0.43;0.43;;;;;;;15.64;69.03;97715.44;29395;222;63009;-61
2023/06/24 01:56:38;;;;;;;0.45;0.45;;;;;;;15.64;69.11;97710.78;29395;294;63009;-61
2023/06/24 01:57:11;;;;;;;0.50;0.50;;;;;;;15.65;69.31;97706.13;29395;198;63009;-59
2023/06/24 01:57:46;;;;;;;0.50;0.50;;;;;;;15.65;69.39;97708.84;29395;270;63005;-62
2023/06/24 01:58:22;;;;;;;0.40;0.40;;;;;;;15.64;68.89;97705.31;29395;239;63014;-60
2023/06/24 01:58:56;;;;;;;0.40;0.40;;;;;;;15.65;69.16;97711.59;29395;279;63005;-51
2023/06/24 01:59:29;;;;;;;0.45;0.45;;;;;;;15.66;69.05;97707.75;29395;214;63009;-52
2023/06/24 02:00:05;;;;;;;0.50;0.50;;;;;;;15.66;68.96;97714.03;29394;196;64000;-61
2023/06/24 02:00:38;;;;;;;0.40;0.40;;;;;;;15.66;69.03;97707.75;29395;222;63009;-52
2023/06/24 02:01:12;;;;;;;0.40;0.40;;;;;;;15.67;69.09;97714.81;29395;303;63004;-61
2023/06/24 02:01:44;;;;;;;1.95;1.95;;;;;;;15.65;69.36;97711.59;29395;239;63019;-63
2023/06/24 02:02:20;;;;;;;0.40;0.40;;;;;;;15.63;69.20;97700.13;29395;313;63004;-62
2023/06/24 02:02:52;;;;;;;0.40;0.40;;;;;;;15.62;69.19;97701.25;29395;211;63009;-62
2023/06/24 02:03:25;;;;;;;0.40;0.40;;;;;;;15.60;69.42;97704.28;29395;281;63005;-61
2023/06/24 02:03:58;;;;;;;0.40;0.40;;;;;;;15.60;69.24;97704.28;29395;224;63009;-61
2023/06/24 02:04:32;;;;;;;0.40;0.40;;;;;;;15.60;69.33;97703.47;29395;221;63005;-62
2023/06/24 02:05:08;;;;;;;0.40;0.40;;;;;;;15.60;69.81;97701.56;29394;256;64013;-61
2023/06/24 02:05:41;;;;;;;0.40;0.40;;;;;;;15.61;69.60;97705.09;29394;206;64005;-58
2023/06/24 02:06:14;;;;;;;0.40;0.40;;;;;;;15.59;69.36;97702.69;29395;205;63009;-52
2023/06/24 02:06:47;;;;;;;0.40;0.40;;;;;;;15.59;69.49;97707.37;29395;339;63005;-60
2023/06/24 02:07:22;;;;;;;0.40;0.40;;;;;;;15.58;69.39;97706.56;29395;297;63023;-59
2023/06/24 02:07:56;;;;;;;0.43;0.43;;;;;;;15.58;69.53;97705.75;29395;202;63004;-60
2023/06/24 02:08:32;;;;;;;0.50;0.50;;;;;;;15.58;69.61;97705.75;29395;251;63024;-62
2023/06/24 02:09:07;;;;;;;0.40;0.40;;;;;;;15.58;69.85;97705.75;29395;293;63004;-60
2023/06/24 02:09:39;;;;;;;0.50;0.50;;;;;;;15.58;69.72;97711.22;29395;342;63008;-61
2023/06/24 02:10:12;;;;;;;0.50;0.50;;;;;;;15.58;69.81;97706.56;29394;269;64008;-51
2023/06/24 02:10:45;;;;;;;0.40;0.40;;;;;;;15.59;69.40;97707.37;29395;224;63009;-60
2023/06/24 02:11:18;;;;;;;0.40;0.40;;;;;;;15.59;69.69;97710.09;29395;317;63005;-61
2023/06/24 02:11:51;;;;;;;0.40;0.40;;;;;;;15.59;69.50;97712.84;29395;224;63009;-60
2023/06/24 02:12:26;;;;;;;0.40;0.40;;;;;;;15.59;69.81;97712.84;29395;222;63005;-60
2023/06/24 02:12:58;;;;;;;0.50;0.50;;;;;;;15.59;69.62;97707.37;29395;266;63009;-60
2023/06/24 02:13:35;;;;;;;0.50;0.50;;;;;;;15.58;69.61;97711.22;29395;285;63006;-51
2023/06/24 02:14:10;;;;;;;0.70;0.70;;;;;;;15.57;69.55;97715.06;29395;242;63019;-61
2023/06/24 02:14:42;;;;;;;0.40;0.40;;;;;;;15.57;69.89;97709.59;29395;267;63010;-61
2023/06/24 02:15:14;;;;;;;0.50;0.50;;;;;;;15.55;70.04;97707.13;29394;225;64013;-52
2023/06/24 02:15:49;;;;;;;0.47;0.47;;;;;;;15.54;69.98;97710.16;29395;298;63004;-60
2023/06/24 02:16:22;;;;;;;0.40;0.40;;;;;;;15.53;69.80;97708.53;29395;196;63009;-61
2023/06/24 02:16:57;;;;;;;0.40;0.40;;;;;;;15.54;70.19;97708.25;29395;228;63009;-63
2023/06/24 02:17:29;;;;;;;0.50;0.50;;;;;;;15.55;69.81;97706.31;29395;282;63008;-61
2023/06/24 02:18:04;;;;;;;0.40;0.40;;;;;;;15.55;70.14;97709.06;29395;204;63005;-61
2023/06/24 02:18:42;;;;;;;0.50;0.50;;;;;;;15.54;69.83;97704.69;29395;298;63024;-62
2023/06/24 02:19:17;;;;;;;0.50;0.50;;;;;;;15.53;70.06;97709.34;29395;339;63014;-61
2023/06/24 02:19:50;;;;;;;0.47;0.47;;;;;;;15.55;69.93;97706.31;29395;212;63009;-62
2023/06/24 02:20:35;;;;;;;0.47;0.47;;;;;;;15.54;69.78;97704.69;29394;208;64009;-60
2023/06/24 02:21:09;;;;;;;0.50;0.50;;;;;;;15.52;70.01;97704.19;29395;203;63019;-61
2023/06/24 02:21:41;;;;;;;0.50;0.50;;;;;;;15.49;70.13;97699.31;29395;298;63005;-52
2023/06/24 02:22:13;;;;;;;0.40;0.40;;;;;;;15.49;70.09;97699.31;29395;209;63009;-51
2023/06/24 02:22:45;;;;;;;0.50;0.50;;;;;;;15.50;70.09;97703.69;29395;221;63004;-60
2023/06/24 02:23:18;;;;;;;0.40;0.40;;;;;;;15.47;70.22;97704.28;29395;202;63013;-59
2023/06/24 02:23:51;;;;;;;0.50;0.50;;;;;;;15.46;70.40;97699.94;29395;205;63004;-52
2023/06/24 02:24:23;;;;;;;0.50;0.50;;;;;;;15.43;70.34;97704.91;29395;284;63009;-61
2023/06/24 02:24:55;;;;;;;0.50;0.50;;;;;;;15.42;70.64;97702.47;29395;258;63004;-61
2023/06/24 02:25:28;;;;;;;0.45;0.45;;;;;;;15.42;70.42;97703.28;29394;301;64014;-52
2023/06/24 02:26:03;;;;;;;0.50;0.50;;;;;;;15.40;70.59;97700.03;29395;203;63005;-62
2023/06/24 02:26:40;;;;;;;0.50;0.50;;;;;;;15.39;70.71;97698.41;29395;197;63009;-51
2023/06/24 02:27:12;;;;;;;0.50;0.50;;;;;;;15.39;70.77;97703.88;29395;220;63005;-60
2023/06/24 02:27:44;;;;;;;0.50;0.50;;;;;;;15.39;70.67;97697.59;29395;224;63009;-61
2023/06/24 02:28:17;;;;;;;0.40;0.40;;;;;;;15.37;70.91;97700.63;29395;266;63005;-59
2023/06/24 02:28:49;;;;;;;0.47;0.47;;;;;;;15.37;70.84;97695.16;29395;222;63009;-60
2023/06/24 02:29:22;;;;;;;0.50;0.50;;;;;;;15.36;70.94;97693.53;29395;202;63005;-60
2023/06/24 02:29:56;;;;;;;0.60;0.60;;;;;;;15.35;70.95;97697.41;29395;210;63009;-61
2023/06/24 02:30:29;;;;;;;0.40;0.40;;;;;;;15.36;71.15;97690.81;29394;197;64009;-51
2023/06/24 02:31:01;;;;;;;0.50;0.50;;;;;;;15.37;71.03;97689.69;29395;198;63014;-59
2023/06/24 02:31:33;;;;;;;0.50;0.50;;;;;;;15.37;71.11;97694.34;29395;204;63004;-60
2023/06/24 02:32:05;;;;;;;0.40;0.40;;;;;;;15.36;70.88;97700.94;29395;214;63008;-60
2023/06/24 02:32:38;;;;;;;0.50;0.50;;;;;;;15.36;70.97;97699.00;29395;342;63004;-52
2023/06/24 02:33:11;;;;;;;0.50;0.50;;;;;;;15.35;70.89;97697.41;29395;225;63009;-52
2023/06/24 02:33:43;;;;;;;0.40;0.40;;;;;;;15.36;71.04;97698.19;29395;225;63005;-62
2023/06/24 02:34:15;;;;;;;0.50;0.50;;;;;;;15.35;70.94;97697.41;29395;272;63009;-51
2023/06/24 02:34:47;;;;;;;0.40;0.40;;;;;;;15.36;71.06;97693.53;29395;205;63005;-59
2023/06/24 02:35:18;;;;;;;0.50;0.50;;;;;;;15.35;70.91;97691.94;29395;197;63009;-61
2023/06/24 02:35:49;;;;;;;0.50;0.50;;;;;;;15.34;71.01;97701.25;29394;273;64009;-62
2023/06/24 02:36:21;;;;;;;0.43;0.43;;;;;;;15.34;71.06;97698.50;29395;226;63009;-51
2023/06/24 02:36:52;;;;;;;0.40;0.40;;;;;;;15.33;71.40;97699.63;29395;301;63005;-60
2023/06/24 02:37:24;;;;;;;2.45;2.35;;;;;;;15.33;71.01;97696.88;29395;312;63009;-60
2023/06/24 02:37:55;;;;;;;0.40;0.40;;;;;;;15.32;71.41;97698.00;29395;253;63004;-51
2023/06/24 02:38:27;;;;;;;0.40;0.40;;;;;;;15.33;71.18;97702.34;29395;223;63009;-60
2023/06/24 02:38:58;;;;;;;0.40;0.40;;;;;;;15.32;71.42;97697.19;29395;202;63009;-60
2023/06/24 02:39:29;;;;;;;0.40;0.40;;;;;;;15.30;71.26;97697.50;29395;206;63009;-52
2023/06/24 02:40:05;;;;;;;0.50;0.50;;;;;;;15.30;71.20;97692.03;29395;262;63004;-51
2023/06/24 02:40:36;;;;;;;0.40;0.40;;;;;;;15.29;71.27;97689.59;29395;240;63009;-60
2023/06/24 02:41:08;;;;;;;0.50;0.50;;;;;;;15.29;71.22;97693.13;29394;224;64009;-61
2023/06/24 02:41:44;;;;;;;0.50;0.50;;;;;;;15.29;71.33;97693.13;29395;211;63009;-60
2023/06/24 02:42:15;;;;;;;0.50;0.50;;;;;;;15.30;71.54;97693.94;29395;219;63005;-60
2023/06/24 02:42:47;;;;;;;0.50;0.50;;;;;;;15.28;71.62;97686.03;29395;267;63009;-61
2023/06/24 02:43:18;;;;;;;0.45;0.45;;;;;;;15.28;71.60;97694.25;29395;202;63005;-62
2023/06/24 02:43:49;;;;;;;0.40;0.40;;;;;;;15.28;71.58;97696.16;29395;256;63009;-52
2023/06/24 02:44:20;;;;;;;0.50;0.50;;;;;;;15.26;71.50;97691.00;29395;336;63000;-61
2023/06/24 02:44:52;;;;;;;0.50;0.50;;;;;;;15.27;71.56;97692.63;29395;256;63009;-59
2023/06/24 02:45:24;;;;;;;0.50;0.50;;;;;;;15.27;71.79;97695.38;29395;241;63004;-61
2023/06/24 02:45:56;;;;;;;0.40;0.40;;;;;;;15.28;71.62;97696.97;29395;234;63009;-52
2023/06/24 02:46:29;;;;;;;0.50;0.50;;;;;;;15.27;71.48;97689.09;29394;196;64008;-61
2023/06/24 02:47:01;;;;;;;0.50;0.50;;;;;;;15.28;71.39;97691.50;29395;237;63012;-62
2023/06/24 02:47:35;;;;;;;0.50;0.50;;;;;;;15.28;71.46;97696.97;29396;264;63007;-60
2023/06/24 02:48:10;;;;;;;0.50;0.50;;;;;;;15.27;71.48;97694.56;29394;222;64009;-61
2023/06/24 02:48:42;;;;;;;0.50;0.50;;;;;;;15.27;71.79;97695.38;29396;241;63018;-60